Athens, West Virginia
Current Conditions -  °F | °C
As of 7:52 PM on Saturday 20 Dec 2014 (Local Time) from KBLF Reporting Station
Light Snow Light Snow  
Wind Chill: 30°   Ceiling: 1200
Heat Index: 34°   Visibility: 4mi
Dew Point: 31°   Wind: 5mph
Humidity: 89%   Direction: 290°WNW
Pressure: 30.17"   Gusts: NA
Location:  37.42°N, 81.02°W
Report Text: KBLF 210052Z AUTO 29004KT 4SM -SN BR FEW002 OVC012 01/M01 A3017 RMK AO2 SNB48 SLP236 P0000 T00111006
Loading
Personal Weather Stations






























Interactive Weather Map New forecast layout! Learn more

10-Day Weather Forecast

Advertisements
Track Severe Weather on mobile